createdAt,value
2019-04-22T00:01:55.385Z,13.70
2019-04-22T00:04:42.167Z,13.60
2019-04-22T00:07:15.972Z,13.50
2019-04-22T00:09:53.215Z,13.40
2019-04-22T00:12:28.002Z,13.30
2019-04-22T00:14:52.506Z,13.30
2019-04-22T00:17:33.520Z,13.20
2019-04-22T00:20:04.708Z,13.30
2019-04-22T00:22:32.642Z,13.20
2019-04-22T00:25:08.065Z,13.20
2019-04-22T00:27:41.223Z,13.10
2019-04-22T00:30:14.014Z,13.20
2019-04-22T00:32:41.873Z,13.20
2019-04-22T00:37:54.758Z,13.10
2019-04-22T00:40:21.056Z,13.10
2019-04-22T00:42:53.840Z,13.10
2019-04-22T00:45:29.481Z,13.00
2019-04-22T00:47:58.049Z,13.00
2019-04-22T00:53:05.702Z,13.00
2019-04-22T00:55:32.614Z,13.00
2019-04-22T00:58:06.254Z,13.00
2019-04-22T01:00:38.719Z,13.00
2019-04-22T01:03:16.028Z,12.90
2019-04-22T01:05:41.977Z,12.80
2019-04-22T01:08:15.150Z,12.70
2019-04-22T01:10:47.875Z,12.70
2019-04-22T01:13:16.699Z,12.70
2019-04-22T01:15:49.700Z,12.70
2019-04-22T01:18:19.261Z,12.60
2019-04-22T01:21:07.207Z,12.60
2019-04-22T01:23:22.470Z,12.60
2019-04-22T01:25:46.140Z,12.60
2019-04-22T01:28:15.173Z,12.60
2019-04-22T01:30:43.040Z,12.60
2019-04-22T01:33:09.474Z,12.60
2019-04-22T01:35:50.721Z,12.60
2019-04-22T01:38:26.664Z,12.60
2019-04-22T01:41:13.129Z,12.50
2019-04-22T01:43:40.973Z,12.50
2019-04-22T01:46:12.668Z,12.40
2019-04-22T01:48:44.902Z,12.40
2019-04-22T01:51:07.882Z,12.50
2019-04-22T01:53:47.841Z,12.50
2019-04-22T01:56:15.842Z,12.50
2019-04-22T01:58:38.275Z,12.40
2019-04-22T02:01:22.202Z,12.40
2019-04-22T02:06:22.132Z,12.40
2019-04-22T02:09:00.607Z,12.50
2019-04-22T02:11:26.137Z,12.50
2019-04-22T02:13:56.662Z,12.40
2019-04-22T02:16:27.614Z,12.30
2019-04-22T02:19:02.402Z,12.30
2019-04-22T02:21:31.893Z,12.30
2019-04-22T02:24:20.003Z,12.30
2019-04-22T02:26:35.535Z,12.20
2019-04-22T02:29:07.880Z,12.10
2019-04-22T02:31:58.989Z,12.00
2019-04-22T02:36:45.234Z,12.00
2019-04-22T02:39:19.805Z,12.00
2019-04-22T02:42:09.456Z,12.00
2019-04-22T02:44:16.821Z,11.90
2019-04-22T02:52:09.357Z,11.70
2019-04-22T02:56:55.992Z,11.60
2019-04-22T02:59:46.880Z,11.60
2019-04-22T03:02:49.083Z,11.50
2019-04-22T03:05:13.109Z,11.50
2019-04-22T03:07:42.470Z,11.50
2019-04-22T03:10:09.098Z,11.50
2019-04-22T03:12:35.281Z,11.60
2019-04-22T03:15:07.371Z,11.60
2019-04-22T03:17:43.733Z,11.70
2019-04-22T03:22:46.971Z,11.70
2019-04-22T03:25:51.662Z,11.70
2019-04-22T03:27:45.688Z,11.80
2019-04-22T03:33:12.141Z,11.80
2019-04-22T03:48:05.230Z,11.90
2019-04-22T03:53:21.006Z,11.90
2019-04-22T03:58:30.557Z,11.80
2019-04-22T04:03:11.741Z,11.80
2019-04-22T04:08:31.814Z,11.80
2019-04-22T04:10:57.498Z,11.80
2019-04-22T04:15:46.244Z,11.80
2019-04-22T04:18:37.232Z,11.80
2019-04-22T04:21:16.589Z,11.80
2019-04-22T04:23:38.340Z,11.80
2019-04-22T04:26:02.351Z,11.70
2019-04-22T04:31:09.858Z,11.80
2019-04-22T04:33:45.238Z,11.80
2019-04-22T04:38:46.466Z,11.80
2019-04-22T04:41:22.581Z,11.80
2019-04-22T04:46:30.648Z,11.80
2019-04-22T04:51:23.928Z,11.80
2019-04-22T04:54:08.071Z,11.80
2019-04-22T04:59:05.562Z,11.80
2019-04-22T05:01:33.403Z,11.80
2019-04-22T05:04:04.807Z,11.80
2019-04-22T05:06:43.049Z,11.80
2019-04-22T05:09:16.601Z,11.80
2019-04-22T05:11:49.292Z,11.80
2019-04-22T05:14:17.240Z,11.80
2019-04-22T05:19:09.554Z,11.70
2019-04-22T05:21:31.050Z,11.60
2019-04-22T05:24:17.992Z,11.70
2019-04-22T05:26:39.691Z,11.70
2019-04-22T05:29:15.023Z,11.70
2019-04-22T05:31:47.877Z,11.70
2019-04-22T05:34:18.973Z,11.70
2019-04-22T05:36:47.750Z,11.70
2019-04-22T05:39:17.163Z,11.80
2019-04-22T05:41:48.401Z,11.80
2019-04-22T05:44:37.276Z,11.90
2019-04-22T05:46:49.953Z,11.90
2019-04-22T05:49:27.222Z,12.00
2019-04-22T05:51:55.444Z,12.00
2019-04-22T05:54:27.330Z,12.00
2019-04-22T05:56:54.841Z,12.00
2019-04-22T05:59:32.642Z,12.10
2019-04-22T06:02:05.123Z,12.20
2019-04-22T06:04:30.789Z,12.20
2019-04-22T06:07:00.414Z,12.30
2019-04-22T06:09:37.234Z,12.30
2019-04-22T06:11:58.984Z,12.30
2019-04-22T06:14:39.374Z,12.30
2019-04-22T06:17:13.722Z,12.30
2019-04-22T06:19:44.885Z,12.40
2019-04-22T06:22:25.391Z,12.50
2019-04-22T06:24:50.735Z,12.50
2019-04-22T06:27:21.190Z,12.60
2019-04-22T06:29:46.059Z,12.60
2019-04-22T06:32:26.663Z,12.60
2019-04-22T06:34:59.502Z,12.60
2019-04-22T06:37:22.197Z,12.60
2019-04-22T06:39:59.172Z,12.50
2019-04-22T06:42:28.380Z,12.50
2019-04-22T06:45:04.243Z,12.60
2019-04-22T06:47:49.160Z,12.70
2019-04-22T06:49:59.158Z,12.70
2019-04-22T06:52:28.096Z,12.70
2019-04-22T06:55:13.582Z,12.70
2019-04-22T06:57:36.340Z,12.70
2019-04-22T07:00:13.639Z,12.70
2019-04-22T07:03:06.081Z,12.80
2019-04-22T07:05:14.388Z,12.80
2019-04-22T07:07:45.332Z,12.80
2019-04-22T07:10:30.202Z,12.80
2019-04-22T07:12:52.319Z,12.80
2019-04-22T07:15:40.645Z,12.90
2019-04-22T07:17:55.167Z,12.90
2019-04-22T07:20:24.225Z,12.90
2019-04-22T07:22:51.250Z,13.00
2019-04-22T07:25:23.390Z,13.00
2019-04-22T07:27:58.207Z,13.10
2019-04-22T07:30:35.992Z,13.20
2019-04-22T07:35:42.540Z,13.30
2019-04-22T07:38:10.870Z,13.30
2019-04-22T07:40:38.928Z,13.40
2019-04-22T07:43:11.623Z,13.40
2019-04-22T07:46:03.511Z,13.40
2019-04-22T07:48:28.929Z,13.40
2019-04-22T07:50:55.740Z,13.50
2019-04-22T07:53:25.529Z,13.50
2019-04-22T07:55:52.130Z,13.60
2019-04-22T07:58:27.414Z,13.70
2019-04-22T08:01:02.052Z,13.70
2019-04-22T08:03:53.392Z,13.70
2019-04-22T08:06:08.706Z,13.70
2019-04-22T08:08:32.719Z,13.80
2019-04-22T08:11:08.942Z,13.80
2019-04-22T08:13:38.883Z,13.90
2019-04-22T08:16:16.478Z,14.00
2019-04-22T08:18:54.092Z,14.00
2019-04-22T08:21:13.459Z,14.10
2019-04-22T08:23:41.720Z,14.10
2019-04-22T08:26:16.810Z,14.20
2019-04-22T08:31:20.269Z,14.50
2019-04-22T08:34:08.154Z,14.60
2019-04-22T08:36:41.024Z,14.70
2019-04-22T08:39:00.860Z,14.80
2019-04-22T08:41:33.185Z,14.90
2019-04-22T08:46:33.154Z,15.00
2019-04-22T08:48:59.005Z,15.00
2019-04-22T08:51:31.022Z,15.10
2019-04-22T08:59:22.201Z,15.20
2019-04-22T09:01:57.461Z,15.20
2019-04-22T09:04:34.674Z,15.40
2019-04-22T09:07:18.268Z,15.40
2019-04-22T09:09:42.364Z,15.40
2019-04-22T09:12:12.638Z,15.50
2019-04-22T09:15:27.857Z,15.60
2019-04-22T09:20:28.076Z,15.60
2019-04-22T09:23:03.324Z,15.60
2019-04-22T09:25:30.242Z,15.70
2019-04-22T09:28:01.837Z,15.90
2019-04-22T09:33:10.582Z,16.10
2019-04-22T09:40:40.389Z,16.20
2019-04-22T09:43:21.855Z,16.40
2019-04-22T09:45:47.840Z,16.40
2019-04-22T09:48:43.521Z,16.40
2019-04-22T09:51:11.557Z,16.50
2019-04-22T09:53:46.762Z,16.70
2019-04-22T09:56:18.234Z,16.70
2019-04-22T09:58:53.541Z,16.80
2019-04-22T10:03:56.557Z,17.00
2019-04-22T10:09:12.639Z,17.00
2019-04-22T10:11:35.030Z,17.10
2019-04-22T10:16:37.137Z,17.30
2019-04-22T10:19:04.672Z,17.40
2019-04-22T10:21:46.321Z,17.40
2019-04-22T10:24:10.138Z,17.40
2019-04-22T10:26:43.996Z,17.50
2019-04-22T10:29:10.682Z,17.60
2019-04-22T10:31:43.344Z,17.90
2019-04-22T10:34:03.864Z,17.80
2019-04-22T10:36:25.591Z,17.90
2019-04-22T10:38:55.747Z,18.00
2019-04-22T10:41:26.330Z,18.00
2019-04-22T10:43:57.065Z,18.20
2019-04-22T10:46:30.526Z,18.40
2019-04-22T10:49:01.952Z,18.50
2019-04-22T10:51:32.738Z,18.50
2019-04-22T10:54:02.921Z,18.60
2019-04-22T10:56:32.989Z,18.60
2019-04-22T10:59:04.432Z,18.70
2019-04-22T11:01:38.146Z,18.70
2019-04-22T11:04:07.020Z,18.90
2019-04-22T11:06:42.266Z,18.90
2019-04-22T11:09:16.188Z,18.90
2019-04-22T11:11:54.516Z,18.90
2019-04-22T11:14:19.043Z,19.00
2019-04-22T11:16:49.743Z,19.10
2019-04-22T11:19:21.355Z,19.10
2019-04-22T11:22:05.149Z,19.20
2019-04-22T11:24:23.468Z,19.20
2019-04-22T11:26:54.950Z,19.30
2019-04-22T11:29:25.584Z,19.30
2019-04-22T11:31:56.628Z,19.40
2019-04-22T11:34:26.954Z,19.50
2019-04-22T11:36:57.176Z,19.50
2019-04-22T11:39:30.779Z,19.70
2019-04-22T11:42:00.296Z,19.80
2019-04-22T11:44:30.950Z,19.80
2019-04-22T11:47:01.616Z,19.80
2019-04-22T11:49:32.018Z,19.80
2019-04-22T11:52:04.781Z,19.80
2019-04-22T11:54:34.695Z,19.90
2019-04-22T11:57:05.467Z,19.90
2019-04-22T11:59:38.551Z,20.00
2019-04-22T12:02:09.010Z,20.10
2019-04-22T12:04:40.168Z,20.10
2019-04-22T12:07:10.914Z,20.20
2019-04-22T12:09:41.901Z,20.30
2019-04-22T12:22:35.775Z,20.50
2019-04-22T12:25:08.083Z,20.60
2019-04-22T12:27:38.969Z,20.70
2019-04-22T12:30:10.877Z,20.80
2019-04-22T12:32:41.239Z,20.90
2019-04-22T12:35:11.628Z,20.90
2019-04-22T12:37:49.948Z,21.00
2019-04-22T12:40:25.896Z,21.10
2019-04-22T12:42:45.289Z,21.10
2019-04-22T12:45:16.276Z,21.20
2019-04-22T12:47:46.648Z,21.10
2019-04-22T12:50:25.357Z,21.20
2019-04-22T12:52:55.604Z,21.20
2019-04-22T12:55:21.692Z,21.30
2019-04-22T12:57:53.854Z,21.20
2019-04-22T13:00:24.738Z,21.30
2019-04-22T13:02:54.801Z,21.40
2019-04-22T13:05:25.088Z,21.50
2019-04-22T13:07:55.823Z,21.60
2019-04-22T13:10:29.714Z,21.70
2019-04-22T13:12:58.673Z,21.70
2019-04-22T13:15:28.969Z,21.70
2019-04-22T13:18:09.299Z,21.80
2019-04-22T13:20:32.275Z,21.80
2019-04-22T13:23:03.923Z,21.80
2019-04-22T13:25:34.714Z,21.80
2019-04-22T13:28:05.040Z,21.70
2019-04-22T13:30:36.862Z,21.80
2019-04-22T13:33:07.164Z,21.80
2019-04-22T13:35:37.288Z,21.70
2019-04-22T13:38:09.085Z,21.70
2019-04-22T13:40:55.858Z,21.70
2019-04-22T13:43:11.135Z,21.70
2019-04-22T13:45:41.480Z,21.70
2019-04-22T13:48:29.728Z,21.60
2019-04-22T13:51:21.781Z,21.70
2019-04-22T13:56:10.434Z,21.70
2019-04-22T13:58:32.517Z,21.70
2019-04-22T14:00:52.151Z,21.70
2019-04-22T14:03:44.734Z,21.70
2019-04-22T14:06:16.346Z,21.70
2019-04-22T14:08:47.187Z,21.70
2019-04-22T14:11:27.709Z,21.70
2019-04-22T14:13:50.232Z,21.80
2019-04-22T14:16:20.409Z,21.90
2019-04-22T14:18:51.824Z,22.00
2019-04-22T14:21:22.856Z,22.00
2019-04-22T14:23:53.205Z,22.10
2019-04-22T14:26:23.327Z,22.30
2019-04-22T14:28:53.549Z,22.40
2019-04-22T14:31:26.742Z,22.40
2019-04-22T14:34:01.842Z,22.40
2019-04-22T14:36:29.814Z,22.30
2019-04-22T14:38:59.959Z,22.10
2019-04-22T14:41:42.362Z,22.00
2019-04-22T14:45:06.616Z,21.90
2019-04-22T14:47:02.130Z,21.80
2019-04-22T14:49:28.798Z,21.60
2019-04-22T14:51:57.638Z,21.60
2019-04-22T14:54:26.563Z,21.50
2019-04-22T14:56:42.381Z,21.50
2019-04-22T14:59:13.389Z,21.50
2019-04-22T15:01:43.656Z,21.50
2019-04-22T15:04:15.109Z,21.50
2019-04-22T15:06:48.279Z,21.60
2019-04-22T15:09:17.135Z,21.50
2019-04-22T15:12:02.695Z,21.60
2019-04-22T15:14:19.473Z,21.60
2019-04-22T15:17:05.051Z,21.60
2019-04-22T15:19:43.503Z,21.70
2019-04-22T15:22:14.607Z,21.80
2019-04-22T15:24:45.111Z,21.80
2019-04-22T15:27:16.259Z,21.90
2019-04-22T15:29:47.344Z,22.00
2019-04-22T15:32:17.672Z,22.20
2019-04-22T15:34:48.886Z,22.30
2019-04-22T15:37:20.471Z,22.30
2019-04-22T15:39:51.882Z,22.30
2019-04-22T15:42:28.108Z,22.20
2019-04-22T15:44:55.840Z,22.20
2019-04-22T15:47:27.041Z,22.20
2019-04-22T15:49:58.348Z,22.10
2019-04-22T15:52:36.275Z,22.10
2019-04-22T15:55:00.751Z,22.10
2019-04-22T15:57:30.877Z,22.20
2019-04-22T16:00:14.673Z,22.30
2019-04-22T16:02:33.958Z,22.40
2019-04-22T16:05:04.635Z,22.40
2019-04-22T16:07:36.069Z,22.30
2019-04-22T16:10:07.967Z,22.30
2019-04-22T16:12:47.509Z,22.20
2019-04-22T16:15:11.661Z,22.20
2019-04-22T16:17:42.486Z,22.00
2019-04-22T16:20:13.333Z,22.10
2019-04-22T16:23:01.434Z,22.20
2019-04-22T16:25:45.260Z,22.10
2019-04-22T16:28:15.730Z,21.90
2019-04-22T16:30:45.830Z,21.80
2019-04-22T16:33:17.193Z,21.90
2019-04-22T16:35:48.856Z,21.90
2019-04-22T16:38:19.215Z,22.10
2019-04-22T16:40:50.511Z,21.80
2019-04-22T16:43:20.669Z,21.70
2019-04-22T16:45:51.808Z,21.50
2019-04-22T16:48:22.007Z,21.40
2019-04-22T16:50:52.725Z,21.40
2019-04-22T16:53:25.145Z,21.50
2019-04-22T16:55:55.350Z,21.40
2019-04-22T16:58:25.437Z,21.40
2019-04-22T17:00:56.462Z,21.50
2019-04-22T17:03:52.371Z,21.40
2019-04-22T17:06:25.704Z,21.40
2019-04-22T17:08:57.138Z,21.30
2019-04-22T17:11:27.651Z,21.30
2019-04-22T17:13:59.228Z,21.20
2019-04-22T17:16:30.626Z,21.00
2019-04-22T17:19:00.721Z,20.70
2019-04-22T17:21:31.870Z,20.60
2019-04-22T17:24:03.469Z,20.60
2019-04-22T17:26:34.547Z,20.40
2019-04-22T17:29:06.356Z,20.30
2019-04-22T17:31:36.554Z,20.10
2019-04-22T17:34:06.953Z,20.00
2019-04-22T17:36:38.289Z,19.90
2019-04-22T17:39:24.810Z,19.60
2019-04-22T17:41:59.681Z,19.30
2019-04-22T17:47:23.595Z,18.70
2019-04-22T17:50:09.545Z,18.50
2019-04-22T17:52:38.918Z,18.40
2019-04-22T17:55:05.095Z,18.30
2019-04-22T17:57:41.996Z,18.20
2019-04-22T18:00:10.101Z,18.10
2019-04-22T18:02:39.765Z,18.00
2019-04-22T18:05:01.481Z,18.00
2019-04-22T18:08:05.180Z,17.90
2019-04-22T18:13:15.721Z,17.80
2019-04-22T18:15:17.771Z,17.70
2019-04-22T18:18:00.894Z,17.70
2019-04-22T18:20:22.577Z,17.60
2019-04-22T18:22:46.248Z,17.60
2019-04-22T18:25:22.400Z,17.60
2019-04-22T18:28:07.145Z,17.60
2019-04-22T18:30:27.386Z,17.60
2019-04-22T18:33:02.785Z,17.50
2019-04-22T18:35:35.258Z,17.40
2019-04-22T18:38:11.260Z,17.40
2019-04-22T18:40:38.666Z,17.40
2019-04-22T18:43:11.923Z,17.40
2019-04-22T18:46:00.383Z,17.40
2019-04-22T18:48:06.534Z,17.40
2019-04-22T18:50:53.259Z,17.30
2019-04-22T18:53:53.826Z,17.20
2019-04-22T18:56:25.564Z,17.10
2019-04-22T18:58:51.362Z,17.10
2019-04-22T19:01:12.448Z,17.10
2019-04-22T19:03:49.719Z,17.10
2019-04-22T19:06:43.146Z,17.10
2019-04-22T19:09:10.543Z,17.00
2019-04-22T19:11:43.699Z,16.90
2019-04-22T19:14:10.817Z,16.70
2019-04-22T19:17:07.649Z,16.60
2019-04-22T19:19:30.411Z,16.60
2019-04-22T19:21:49.594Z,16.50
2019-04-22T19:24:18.573Z,16.40
2019-04-22T19:26:58.847Z,16.30
2019-04-22T19:29:25.572Z,16.30
2019-04-22T19:31:56.958Z,16.30
2019-04-22T19:34:25.611Z,16.30
2019-04-22T19:36:57.255Z,16.20
2019-04-22T19:39:28.852Z,16.00
2019-04-22T19:42:09.526Z,15.90
2019-04-22T19:44:43.820Z,15.90
2019-04-22T19:49:58.378Z,15.80
2019-04-22T19:52:28.780Z,15.80
2019-04-22T19:55:01.542Z,15.70
2019-04-22T19:57:26.566Z,15.70
2019-04-22T20:00:05.172Z,15.70
2019-04-22T20:02:51.183Z,15.60
2019-04-22T20:05:43.689Z,15.60
2019-04-22T20:08:14.661Z,15.60
2019-04-22T20:10:56.018Z,15.50
2019-04-22T20:13:34.902Z,15.50
2019-04-22T20:15:50.856Z,15.40
2019-04-22T20:18:34.289Z,15.40
2019-04-22T20:21:04.587Z,15.30
2019-04-22T20:23:25.569Z,15.20
2019-04-22T20:25:58.991Z,15.10
2019-04-22T20:28:37.897Z,15.10
2019-04-22T20:31:09.647Z,15.10
2019-04-22T20:33:48.141Z,15.20
2019-04-22T20:36:27.095Z,15.10
2019-04-22T20:38:40.038Z,15.10
2019-04-22T20:41:08.828Z,15.00
2019-04-22T20:43:52.679Z,15.00
2019-04-22T20:46:20.602Z,14.90
2019-04-22T20:48:55.646Z,14.90
2019-04-22T20:51:26.259Z,14.90
2019-04-22T20:54:01.083Z,14.90
2019-04-22T20:56:28.641Z,14.90
2019-04-22T20:58:55.986Z,14.80
2019-04-22T21:01:28.564Z,14.90
2019-04-22T21:03:47.915Z,14.90
2019-04-22T21:06:33.356Z,14.80
2019-04-22T21:09:07.536Z,14.80
2019-04-22T21:11:34.077Z,14.70
2019-04-22T21:14:05.996Z,14.60
2019-04-22T21:16:38.229Z,14.60
2019-04-22T21:19:11.738Z,14.50
2019-04-22T21:21:46.110Z,14.50
2019-04-22T21:24:09.359Z,14.50
2019-04-22T21:26:45.323Z,14.60
2019-04-22T21:29:14.620Z,14.50
2019-04-22T21:31:51.370Z,14.40
2019-04-22T21:34:16.170Z,14.40
2019-04-22T21:36:57.482Z,14.30
2019-04-22T21:39:19.147Z,14.40
2019-04-22T21:41:52.493Z,14.30
2019-04-22T21:44:26.597Z,14.30
2019-04-22T21:47:04.444Z,14.20
2019-04-22T21:49:29.504Z,14.10
2019-04-22T21:52:01.624Z,14.10
2019-04-22T21:54:36.618Z,14.10
2019-04-22T21:57:27.997Z,14.00
2019-04-22T22:00:00.692Z,14.00
2019-04-22T22:02:33.782Z,14.00
2019-04-22T22:04:58.243Z,14.00
2019-04-22T22:07:16.061Z,14.00
2019-04-22T22:10:04.452Z,14.00
2019-04-22T22:12:36.263Z,14.00
2019-04-22T22:15:08.423Z,13.90
2019-04-22T22:17:38.271Z,13.90
2019-04-22T22:20:05.885Z,13.90
2019-04-22T22:22:52.635Z,13.80
2019-04-22T22:25:16.370Z,13.80
2019-04-22T22:27:43.234Z,13.80
2019-04-22T22:30:38.814Z,13.80
2019-04-22T22:32:56.792Z,13.80
2019-04-22T22:35:20.603Z,13.90
2019-04-22T22:37:50.684Z,13.80
2019-04-22T22:40:10.834Z,13.70
2019-04-22T22:42:41.889Z,13.70
2019-04-22T22:45:19.833Z,13.60
2019-04-22T22:48:09.483Z,13.50
2019-04-22T22:50:31.366Z,13.50
2019-04-22T22:53:15.456Z,13.50
2019-04-22T22:55:37.505Z,13.50
2019-04-22T22:58:14.200Z,13.50
2019-04-22T23:00:35.208Z,13.50
2019-04-22T23:05:54.838Z,13.50
2019-04-22T23:08:20.088Z,13.50
2019-04-22T23:10:55.922Z,13.50
2019-04-22T23:13:22.106Z,13.50
2019-04-22T23:15:48.156Z,13.40
2019-04-22T23:18:03.695Z,13.30
2019-04-22T23:20:38.245Z,13.30
2019-04-22T23:23:26.765Z,13.30
2019-04-22T23:26:02.522Z,13.30
2019-04-22T23:28:52.489Z,13.30
2019-04-22T23:31:43.414Z,13.30
2019-04-22T23:34:22.369Z,13.40
2019-04-22T23:37:19.166Z,13.30
2019-04-22T23:42:46.598Z,13.20
2019-04-22T23:44:56.374Z,13.20
2019-04-22T23:47:26.381Z,13.10
2019-04-22T23:50:01.023Z,13.10
2019-04-22T23:52:43.211Z,13.10
2019-04-22T23:55:14.622Z,13.00
2019-04-22T23:57:51.529Z,13.00
